createdAt,value
2023-02-07T00:01:41.083Z,27.43
2023-02-07T00:04:09.291Z,29.30
2023-02-07T00:06:38.318Z,25.50
2023-02-07T00:09:09.869Z,28.10
2023-02-07T00:11:40.825Z,27.50
2023-02-07T00:14:10.946Z,29.70
2023-02-07T00:16:39.401Z,24.33
2023-02-07T00:19:07.694Z,28.00
2023-02-07T00:21:35.818Z,23.87
2023-02-07T00:24:04.016Z,24.23
2023-02-07T00:26:33.542Z,24.40
2023-02-07T00:29:01.701Z,23.77
2023-02-07T00:31:32.969Z,28.80
2023-02-07T00:34:05.652Z,25.00
2023-02-07T00:36:36.548Z,23.90
2023-02-07T00:39:08.378Z,24.87
2023-02-07T00:41:37.998Z,25.10
2023-02-07T00:44:06.755Z,24.17
2023-02-07T00:46:36.085Z,24.63
2023-02-07T00:49:05.390Z,22.90
2023-02-07T00:51:34.174Z,22.90
2023-02-07T00:54:02.638Z,25.03
2023-02-07T00:56:32.641Z,24.43
2023-02-07T00:59:02.419Z,23.20
2023-02-07T01:01:30.704Z,27.07
2023-02-07T01:03:59.430Z,27.63
2023-02-07T01:06:29.454Z,23.47
2023-02-07T01:08:59.681Z,25.47
2023-02-07T01:11:28.997Z,23.90
2023-02-07T01:13:58.927Z,23.10
2023-02-07T01:16:32.043Z,26.07
2023-02-07T01:19:02.939Z,24.40
2023-02-07T01:21:31.242Z,23.37
2023-02-07T01:23:59.375Z,23.43
2023-02-07T01:26:29.124Z,22.13
2023-02-07T01:28:58.123Z,25.97
2023-02-07T01:31:28.026Z,25.60
2023-02-07T01:33:57.107Z,25.90
2023-02-07T01:36:26.961Z,24.57
2023-02-07T01:38:56.180Z,22.37
2023-02-07T01:41:27.775Z,25.37
2023-02-07T01:44:04.136Z,22.13
2023-02-07T01:46:36.016Z,21.50
2023-02-07T01:49:09.608Z,22.20
2023-02-07T01:51:41.882Z,23.50
2023-02-07T01:54:14.677Z,24.17
2023-02-07T01:56:47.715Z,24.67
2023-02-07T01:59:17.357Z,22.93
2023-02-07T02:01:48.001Z,23.07
2023-02-07T02:04:16.207Z,25.27
2023-02-07T02:06:45.193Z,25.23
2023-02-07T02:09:17.150Z,27.93
2023-02-07T02:12:20.380Z,23.67
2023-02-07T02:15:13.524Z,23.53
2023-02-07T02:18:09.199Z,24.13
2023-02-07T02:21:45.819Z,23.30
2023-02-07T02:24:51.256Z,25.20
2023-02-07T02:27:41.738Z,24.00
2023-02-07T02:30:40.319Z,22.77
2023-02-07T02:33:29.449Z,21.70
2023-02-07T02:36:16.830Z,21.63
2023-02-07T02:38:53.003Z,24.87
2023-02-07T02:41:29.923Z,24.60
2023-02-07T02:44:05.408Z,22.67
2023-02-07T02:46:38.465Z,24.30
2023-02-07T02:49:12.820Z,26.63
2023-02-07T02:51:40.913Z,23.23
2023-02-07T02:54:31.970Z,24.53
2023-02-07T02:57:39.849Z,25.20
2023-02-07T03:00:33.259Z,22.30
2023-02-07T03:03:26.370Z,23.80
2023-02-07T03:06:11.576Z,22.80
2023-02-07T03:08:49.637Z,22.17
2023-02-07T03:11:22.997Z,21.63
2023-02-07T03:14:01.396Z,24.43
2023-02-07T03:16:37.527Z,23.23
2023-02-07T03:19:12.973Z,22.97
2023-02-07T03:21:48.088Z,23.33
2023-02-07T03:24:21.747Z,23.13
2023-02-07T03:26:53.985Z,23.57
2023-02-07T03:29:25.698Z,23.77
2023-02-07T03:31:59.220Z,22.77
2023-02-07T03:34:35.375Z,21.33
2023-02-07T03:37:11.785Z,24.23
2023-02-07T03:39:40.497Z,23.73
2023-02-07T03:42:17.497Z,24.70
2023-02-07T03:44:48.735Z,22.30
2023-02-07T03:47:18.536Z,21.07
2023-02-07T03:49:47.168Z,23.90
2023-02-07T03:52:16.659Z,23.10
2023-02-07T03:54:44.773Z,25.83
2023-02-07T03:57:13.254Z,23.17
2023-02-07T03:59:41.427Z,23.90
2023-02-07T04:02:09.703Z,26.17
2023-02-07T04:04:38.354Z,25.27
2023-02-07T04:07:06.818Z,26.60
2023-02-07T04:09:36.340Z,26.53
2023-02-07T04:12:05.229Z,24.87
2023-02-07T04:14:33.387Z,23.47
2023-02-07T04:17:01.555Z,23.07
2023-02-07T04:19:29.719Z,24.07
2023-02-07T04:21:57.830Z,25.63
2023-02-07T04:24:26.217Z,25.87
2023-02-07T04:26:55.688Z,25.10
2023-02-07T04:29:23.809Z,22.83
2023-02-07T04:31:52.038Z,25.57
2023-02-07T04:34:20.187Z,24.50
2023-02-07T04:36:48.291Z,27.80
2023-02-07T04:39:16.489Z,25.43
2023-02-07T04:41:44.620Z,25.17
2023-02-07T04:44:14.298Z,26.07
2023-02-07T04:46:42.418Z,23.80
2023-02-07T04:49:10.559Z,28.73
2023-02-07T04:51:38.743Z,24.83
2023-02-07T04:54:07.017Z,28.80
2023-02-07T04:56:36.387Z,34.53
2023-02-07T04:59:04.746Z,31.40
2023-02-07T05:01:34.311Z,36.40
2023-02-07T05:04:02.457Z,27.00
2023-02-07T05:06:31.659Z,29.23
2023-02-07T05:08:59.887Z,30.70
2023-02-07T05:11:28.080Z,34.47
2023-02-07T05:13:56.180Z,32.43
2023-02-07T05:16:24.336Z,33.73
2023-02-07T05:18:53.868Z,28.73
2023-02-07T05:21:22.005Z,28.43
2023-02-07T05:23:50.132Z,47.23
2023-02-07T05:26:18.404Z,35.13
2023-02-07T05:28:46.610Z,34.20
2023-02-07T05:31:14.908Z,32.53
2023-02-07T05:33:42.125Z,31.17
2023-02-07T05:36:12.044Z,32.03
2023-02-07T05:38:40.189Z,33.73
2023-02-07T05:41:08.281Z,32.87
2023-02-07T05:43:36.451Z,33.03
2023-02-07T05:46:04.623Z,35.03
2023-02-07T05:48:32.768Z,43.60
2023-02-07T05:51:00.863Z,36.83
2023-02-07T05:53:30.382Z,33.80
2023-02-07T05:55:58.511Z,32.57
2023-02-07T05:58:26.642Z,33.23
2023-02-07T06:00:56.566Z,33.60
2023-02-07T06:03:24.767Z,31.13
2023-02-07T06:05:53.072Z,37.60
2023-02-07T06:08:21.182Z,33.23
2023-02-07T06:10:50.826Z,31.70
2023-02-07T06:13:18.946Z,34.07
2023-02-07T06:15:47.116Z,32.33
2023-02-07T06:18:15.478Z,34.63
2023-02-07T06:20:43.721Z,32.97
2023-02-07T06:23:11.870Z,39.70
2023-02-07T06:25:40.373Z,33.50
2023-02-07T06:28:10.208Z,34.23
2023-02-07T06:30:38.342Z,30.33
2023-02-07T06:33:06.454Z,45.63
2023-02-07T06:35:34.552Z,32.37
2023-02-07T06:38:02.674Z,30.53
2023-02-07T06:40:30.918Z,31.67
2023-02-07T06:42:59.018Z,35.20
2023-02-07T06:45:28.474Z,33.67
2023-02-07T06:47:56.607Z,38.90
2023-02-07T06:50:24.746Z,30.57
2023-02-07T06:52:52.878Z,32.60
2023-02-07T06:55:21.071Z,44.60
2023-02-07T06:57:49.199Z,34.50
2023-02-07T07:00:18.736Z,35.30
2023-02-07T07:02:48.607Z,34.87
2023-02-07T07:05:17.172Z,34.40
2023-02-07T07:07:45.759Z,35.63
2023-02-07T07:10:14.860Z,32.90
2023-02-07T07:12:43.009Z,38.97
2023-02-07T07:15:11.549Z,38.60
2023-02-07T07:17:39.704Z,35.77
2023-02-07T07:20:12.168Z,39.90
2023-02-07T07:22:40.361Z,37.60
2023-02-07T07:25:09.093Z,37.30
2023-02-07T07:27:37.180Z,33.47
2023-02-07T07:30:06.286Z,34.03
2023-02-07T07:32:34.690Z,35.47
2023-02-07T07:35:03.404Z,33.90
2023-02-07T07:37:33.434Z,40.50
2023-02-07T07:40:01.807Z,38.63
2023-02-07T07:42:29.844Z,37.13
2023-02-07T07:44:57.896Z,35.20
2023-02-07T07:47:27.813Z,35.80
2023-02-07T07:49:56.053Z,34.93
2023-02-07T07:52:24.096Z,37.07
2023-02-07T07:54:53.588Z,34.60
2023-02-07T07:57:22.117Z,34.43
2023-02-07T07:59:50.155Z,35.03
2023-02-07T08:02:18.190Z,31.77
2023-02-07T08:04:46.211Z,32.00
2023-02-07T08:07:14.759Z,34.07
2023-02-07T08:09:42.894Z,30.50
2023-02-07T08:12:12.358Z,35.37
2023-02-07T08:14:40.428Z,35.43
2023-02-07T08:17:08.500Z,35.27
2023-02-07T08:19:38.307Z,38.33
2023-02-07T08:22:06.733Z,34.40
2023-02-07T08:24:35.952Z,36.37
2023-02-07T08:27:04.857Z,33.73
2023-02-07T08:29:35.056Z,33.93
2023-02-07T08:32:03.547Z,36.43
2023-02-07T08:34:37.262Z,35.70
2023-02-07T08:37:06.957Z,35.47
2023-02-07T08:39:36.000Z,37.20
2023-02-07T08:42:05.338Z,39.73
2023-02-07T08:44:34.897Z,36.57
2023-02-07T08:47:02.979Z,36.37
2023-02-07T08:49:31.261Z,38.77
2023-02-07T08:51:59.340Z,37.20
2023-02-07T08:54:27.485Z,42.43
2023-02-07T08:56:55.563Z,36.93
2023-02-07T08:59:23.812Z,40.07
2023-02-07T09:01:53.270Z,36.10
2023-02-07T09:04:21.649Z,39.33
2023-02-07T09:06:49.818Z,37.53
2023-02-07T09:09:18.625Z,40.93
2023-02-07T09:11:46.693Z,42.07
2023-02-07T09:14:14.724Z,38.87
2023-02-07T09:16:42.949Z,36.17
2023-02-07T09:19:12.353Z,37.93
2023-02-07T09:21:40.459Z,36.00
2023-02-07T09:24:08.745Z,36.57
2023-02-07T09:26:38.894Z,39.17
2023-02-07T09:29:07.898Z,39.70
2023-02-07T09:31:36.487Z,41.67
2023-02-07T09:34:05.297Z,38.00
2023-02-07T09:36:35.213Z,36.90
2023-02-07T09:39:05.343Z,42.23
2023-02-07T09:41:43.253Z,43.27
2023-02-07T09:44:25.756Z,40.93
2023-02-07T09:47:03.171Z,40.63
2023-02-07T09:49:39.584Z,42.77
2023-02-07T09:52:18.014Z,41.13
2023-02-07T09:54:50.397Z,41.37
2023-02-07T09:57:26.324Z,39.80
2023-02-07T10:00:03.449Z,41.77
2023-02-07T10:02:39.570Z,46.03
2023-02-07T10:05:18.236Z,42.17
2023-02-07T10:07:49.934Z,43.20
2023-02-07T10:10:23.862Z,39.60
2023-02-07T10:13:22.523Z,42.13
2023-02-07T10:16:14.269Z,43.60
2023-02-07T10:18:50.216Z,38.97
2023-02-07T10:21:33.542Z,47.13
2023-02-07T10:24:27.523Z,40.77
2023-02-07T10:27:05.037Z,40.00
2023-02-07T10:29:50.673Z,41.70
2023-02-07T10:32:24.387Z,38.30
2023-02-07T10:34:57.679Z,38.10
2023-02-07T10:37:29.800Z,34.83
2023-02-07T10:40:06.757Z,37.30
2023-02-07T10:42:38.704Z,38.53
2023-02-07T10:45:08.639Z,42.10
2023-02-07T10:47:41.782Z,40.60
2023-02-07T10:50:24.766Z,37.60
2023-02-07T10:53:00.042Z,37.87
2023-02-07T10:55:44.819Z,37.47
2023-02-07T10:58:23.082Z,40.07
2023-02-07T11:00:54.697Z,36.27
2023-02-07T11:03:25.340Z,40.73
2023-02-07T11:05:59.756Z,42.33
2023-02-07T11:08:30.217Z,44.37
2023-02-07T11:11:18.334Z,40.77
2023-02-07T11:13:50.495Z,39.33
2023-02-07T11:16:22.769Z,35.77
2023-02-07T11:18:59.320Z,38.03
2023-02-07T11:21:35.054Z,39.87
2023-02-07T11:24:09.496Z,39.57
2023-02-07T11:26:55.648Z,43.50
2023-02-07T11:29:26.355Z,37.90
2023-02-07T11:31:59.673Z,41.00
2023-02-07T11:34:45.805Z,46.13
2023-02-07T11:37:26.630Z,37.93
2023-02-07T11:39:57.049Z,41.73
2023-02-07T11:42:32.580Z,40.73
2023-02-07T11:45:06.417Z,42.13
2023-02-07T11:47:38.106Z,40.87
2023-02-07T11:50:09.320Z,39.73
2023-02-07T11:52:40.653Z,38.20
2023-02-07T11:55:18.326Z,42.23
2023-02-07T11:57:48.249Z,39.77
2023-02-07T12:00:24.862Z,36.77
2023-02-07T12:03:03.497Z,39.47
2023-02-07T12:05:38.818Z,41.47
2023-02-07T12:08:18.198Z,42.30
2023-02-07T12:10:52.603Z,39.07
2023-02-07T12:13:27.785Z,40.17
2023-02-07T12:16:03.701Z,41.43
2023-02-07T12:18:37.474Z,39.10
2023-02-07T12:21:15.202Z,39.20
2023-02-07T12:23:50.130Z,39.23
2023-02-07T12:26:27.303Z,40.50
2023-02-07T12:29:18.438Z,41.87
2023-02-07T12:32:01.484Z,40.80
2023-02-07T12:34:38.193Z,45.53
2023-02-07T12:37:28.913Z,38.60
2023-02-07T12:40:11.194Z,43.70
2023-02-07T12:42:43.967Z,38.47
2023-02-07T12:45:24.956Z,38.13
2023-02-07T12:48:06.685Z,39.60
2023-02-07T12:50:54.549Z,41.20
2023-02-07T12:53:37.882Z,44.10
2023-02-07T12:56:24.838Z,41.20
2023-02-07T12:59:03.889Z,39.87
2023-02-07T13:01:43.105Z,40.87
2023-02-07T13:04:38.821Z,41.07
2023-02-07T13:07:26.589Z,41.67
2023-02-07T13:10:05.792Z,40.17
2023-02-07T13:12:46.547Z,42.87
2023-02-07T13:15:28.038Z,41.33
2023-02-07T13:18:08.645Z,41.17
2023-02-07T13:21:06.168Z,41.00
2023-02-07T13:23:39.423Z,39.00
2023-02-07T13:26:16.738Z,43.33
2023-02-07T13:28:50.438Z,38.00
2023-02-07T13:31:22.215Z,42.63
2023-02-07T13:33:54.089Z,38.23
2023-02-07T13:36:33.013Z,38.37
2023-02-07T13:39:27.538Z,41.07
2023-02-07T13:42:18.801Z,40.00
2023-02-07T13:45:00.954Z,40.33
2023-02-07T13:47:53.441Z,38.63
2023-02-07T13:50:41.066Z,36.83
2023-02-07T13:53:29.590Z,36.07
2023-02-07T13:56:04.436Z,34.87
2023-02-07T13:59:11.093Z,35.63
2023-02-07T14:01:53.834Z,36.67
2023-02-07T14:04:23.794Z,38.80
2023-02-07T14:07:11.832Z,39.03
2023-02-07T14:09:47.069Z,39.63
2023-02-07T14:12:23.060Z,37.50
2023-02-07T14:15:02.233Z,40.27
2023-02-07T14:18:01.263Z,40.20
2023-02-07T14:20:51.140Z,39.03
2023-02-07T14:23:21.548Z,42.73
2023-02-07T14:25:51.737Z,40.87
2023-02-07T14:28:36.096Z,42.00
2023-02-07T14:31:22.629Z,38.13
2023-02-07T14:34:13.923Z,42.43
2023-02-07T14:36:43.523Z,44.33
2023-02-07T14:39:34.251Z,42.27
2023-02-07T14:42:13.798Z,44.70
2023-02-07T14:44:47.316Z,43.53
2023-02-07T14:47:25.634Z,43.60
2023-02-07T14:49:58.259Z,42.47
2023-02-07T14:52:31.179Z,45.77
2023-02-07T14:55:05.847Z,42.90
2023-02-07T14:57:49.899Z,45.23
2023-02-07T15:00:31.571Z,45.10
2023-02-07T15:03:02.945Z,39.20
2023-02-07T15:05:34.277Z,41.30
2023-02-07T15:08:18.058Z,43.83
2023-02-07T15:10:56.551Z,45.17
2023-02-07T15:13:31.124Z,39.70
2023-02-07T15:16:05.668Z,43.77
2023-02-07T15:18:39.910Z,43.23
2023-02-07T15:21:17.004Z,46.70
2023-02-07T15:23:50.936Z,43.07
2023-02-07T15:26:21.328Z,42.67
2023-02-07T15:29:00.284Z,44.30
2023-02-07T15:31:29.168Z,43.93
2023-02-07T15:34:01.129Z,40.43
2023-02-07T15:36:35.277Z,46.67
2023-02-07T15:39:08.157Z,48.60
2023-02-07T15:41:37.598Z,45.77
2023-02-07T15:44:08.602Z,47.20
2023-02-07T15:46:48.274Z,49.17
2023-02-07T15:49:34.756Z,51.33
2023-02-07T15:52:13.699Z,49.60
2023-02-07T15:54:50.860Z,53.40
2023-02-07T15:57:26.943Z,46.63
2023-02-07T15:59:57.551Z,50.43
2023-02-07T16:02:31.250Z,51.20
2023-02-07T16:05:00.091Z,51.67
2023-02-07T16:07:30.177Z,51.97
2023-02-07T16:10:16.575Z,48.80
2023-02-07T16:12:50.401Z,51.50
2023-02-07T16:15:32.094Z,53.10
2023-02-07T16:18:02.022Z,53.53
2023-02-07T16:20:35.362Z,54.50
2023-02-07T16:23:07.633Z,49.97
2023-02-07T16:25:37.930Z,49.17
2023-02-07T16:28:15.498Z,55.13
2023-02-07T16:30:43.778Z,55.33
2023-02-07T16:33:14.844Z,54.37
2023-02-07T16:35:42.974Z,53.87
2023-02-07T16:38:11.156Z,54.63
2023-02-07T16:40:40.045Z,55.43
2023-02-07T16:43:10.270Z,55.07
2023-02-07T16:45:40.248Z,56.03
2023-02-07T16:48:15.960Z,59.07
2023-02-07T16:50:44.391Z,61.13
2023-02-07T16:53:12.488Z,56.67
2023-02-07T16:55:41.436Z,54.50
2023-02-07T16:58:26.057Z,56.93
2023-02-07T17:00:54.958Z,57.83
2023-02-07T17:03:24.341Z,58.20
2023-02-07T17:05:52.592Z,56.47
2023-02-07T17:08:26.951Z,53.63
2023-02-07T17:11:00.209Z,53.80
2023-02-07T17:13:29.945Z,54.97
2023-02-07T17:15:58.362Z,54.87
2023-02-07T17:18:26.867Z,55.33
2023-02-07T17:20:55.915Z,56.27
2023-02-07T17:23:25.232Z,56.87
2023-02-07T17:25:53.365Z,62.23
2023-02-07T17:28:21.503Z,56.20
2023-02-07T17:30:51.500Z,58.23
2023-02-07T17:33:19.629Z,57.13
2023-02-07T17:35:47.791Z,53.13
2023-02-07T17:38:15.909Z,56.97
2023-02-07T17:40:44.267Z,52.87
2023-02-07T17:43:12.391Z,51.87
2023-02-07T17:45:40.632Z,58.87
2023-02-07T17:48:13.629Z,54.30
2023-02-07T17:50:42.458Z,55.30
2023-02-07T17:53:11.347Z,53.83
2023-02-07T17:55:39.973Z,52.53
2023-02-07T17:58:08.583Z,56.57
2023-02-07T18:00:41.162Z,51.50
2023-02-07T18:03:11.364Z,52.43
2023-02-07T18:05:42.001Z,48.00
2023-02-07T18:08:15.010Z,52.37
2023-02-07T18:10:43.297Z,50.90
2023-02-07T18:13:11.415Z,51.17
2023-02-07T18:15:39.556Z,47.87
2023-02-07T18:18:07.752Z,52.47
2023-02-07T18:20:37.213Z,49.87
2023-02-07T18:23:05.508Z,54.20
2023-02-07T18:25:34.440Z,54.77
2023-02-07T18:28:02.571Z,50.80
2023-02-07T18:30:31.232Z,51.43
2023-02-07T18:33:00.189Z,60.17
2023-02-07T18:35:28.328Z,55.13
2023-02-07T18:37:57.791Z,55.63
2023-02-07T18:40:25.942Z,53.77
2023-02-07T18:42:55.113Z,55.30
2023-02-07T18:45:23.619Z,56.87
2023-02-07T18:47:52.140Z,57.23
2023-02-07T18:50:20.501Z,54.53
2023-02-07T18:52:49.338Z,52.63
2023-02-07T18:55:19.183Z,54.60
2023-02-07T18:57:47.367Z,57.80
2023-02-07T19:00:16.362Z,54.00
2023-02-07T19:02:44.597Z,55.10
2023-02-07T19:05:12.773Z,54.80
2023-02-07T19:07:42.634Z,52.57
2023-02-07T19:10:12.259Z,54.40
2023-02-07T19:12:41.735Z,58.97
2023-02-07T19:15:10.976Z,57.47
2023-02-07T19:17:39.264Z,59.10
2023-02-07T19:20:08.588Z,54.13
2023-02-07T19:22:37.655Z,50.97
2023-02-07T19:25:06.906Z,53.83
2023-02-07T19:27:35.183Z,55.23
2023-02-07T19:30:06.684Z,58.63
2023-02-07T19:32:34.765Z,53.93
2023-02-07T19:35:02.879Z,57.00
2023-02-07T19:37:31.005Z,59.83
2023-02-07T19:39:59.089Z,56.27
2023-02-07T19:42:27.180Z,58.03
2023-02-07T19:44:55.282Z,55.50
2023-02-07T19:47:24.767Z,59.97
2023-02-07T19:49:52.903Z,59.90
2023-02-07T19:52:23.093Z,60.83
2023-02-07T19:54:51.234Z,60.13
2023-02-07T19:57:19.345Z,58.63
2023-02-07T19:59:48.423Z,55.07
2023-02-07T20:02:16.583Z,62.03
2023-02-07T20:04:46.090Z,58.97
2023-02-07T20:07:14.202Z,57.53
2023-02-07T20:09:42.287Z,58.77
2023-02-07T20:12:10.389Z,61.73
2023-02-07T20:14:38.679Z,59.73
2023-02-07T20:17:07.076Z,63.30
2023-02-07T20:19:36.532Z,56.87
2023-02-07T20:22:06.058Z,60.83
2023-02-07T20:24:34.182Z,65.40
2023-02-07T20:27:02.319Z,67.00
2023-02-07T20:29:32.460Z,58.23
2023-02-07T20:32:00.627Z,66.87
2023-02-07T20:34:28.775Z,65.17
2023-02-07T20:36:57.430Z,60.33
2023-02-07T20:39:29.115Z,69.27
2023-02-07T20:41:57.197Z,63.60
2023-02-07T20:44:26.522Z,66.37
2023-02-07T20:46:56.086Z,63.57
2023-02-07T20:49:28.338Z,69.67
2023-02-07T20:51:58.397Z,61.20
2023-02-07T20:54:31.130Z,68.43
2023-02-07T20:56:59.715Z,76.40
2023-02-07T20:59:30.948Z,63.90
2023-02-07T21:02:00.166Z,69.90
2023-02-07T21:04:29.706Z,76.17
2023-02-07T21:06:57.985Z,71.53
2023-02-07T21:09:27.558Z,70.83
2023-02-07T21:11:56.003Z,65.17
2023-02-07T21:14:27.518Z,72.83
2023-02-07T21:16:58.340Z,68.20
2023-02-07T21:19:27.041Z,67.77
2023-02-07T21:21:55.960Z,72.30
2023-02-07T21:24:24.322Z,66.90
2023-02-07T21:26:55.966Z,78.17
2023-02-07T21:29:24.912Z,65.93
2023-02-07T21:31:53.585Z,67.50
2023-02-07T21:34:22.285Z,67.17
2023-02-07T21:36:52.278Z,66.77
2023-02-07T21:39:23.447Z,71.30
2023-02-07T21:41:53.098Z,66.40
2023-02-07T21:44:22.118Z,72.73
2023-02-07T21:46:51.180Z,66.97
2023-02-07T21:49:20.903Z,66.03
2023-02-07T21:51:53.642Z,58.27
2023-02-07T21:54:22.001Z,62.80
2023-02-07T21:56:52.762Z,63.13
2023-02-07T21:59:23.333Z,64.67
2023-02-07T22:01:52.487Z,61.97
2023-02-07T22:04:20.927Z,67.27
2023-02-07T22:06:49.402Z,61.63
2023-02-07T22:09:20.653Z,58.40
2023-02-07T22:11:49.441Z,64.50
2023-02-07T22:14:19.344Z,66.97
2023-02-07T22:16:51.201Z,70.53
2023-02-07T22:19:20.920Z,61.47
2023-02-07T22:21:50.392Z,65.30
2023-02-07T22:24:20.717Z,56.90
2023-02-07T22:26:48.858Z,61.53
2023-02-07T22:29:18.372Z,61.67
2023-02-07T22:31:46.743Z,59.47
2023-02-07T22:34:15.726Z,57.17
2023-02-07T22:36:46.219Z,69.27
2023-02-07T22:39:17.699Z,69.63
2023-02-07T22:41:46.591Z,67.63
2023-02-07T22:44:15.577Z,64.83
2023-02-07T22:46:45.035Z,66.83
2023-02-07T22:49:13.798Z,65.20
2023-02-07T22:51:41.929Z,70.73
2023-02-07T22:54:16.492Z,64.57
2023-02-07T22:56:46.102Z,75.00
2023-02-07T22:59:14.696Z,69.07
2023-02-07T23:01:45.847Z,73.53
2023-02-07T23:04:18.081Z,78.97
2023-02-07T23:06:46.858Z,70.53
2023-02-07T23:09:15.096Z,78.10
2023-02-07T23:11:43.260Z,68.33
2023-02-07T23:14:11.448Z,107.40
2023-02-07T23:16:39.665Z,78.03
2023-02-07T23:19:14.503Z,81.03
2023-02-07T23:21:43.925Z,66.80
2023-02-07T23:24:12.950Z,70.50
2023-02-07T23:26:41.115Z,72.50
2023-02-07T23:29:09.395Z,67.90
2023-02-07T23:31:37.556Z,76.83
2023-02-07T23:34:05.728Z,71.70
2023-02-07T23:36:35.184Z,69.00
2023-02-07T23:39:04.892Z,75.07
2023-02-07T23:41:33.800Z,73.90
2023-02-07T23:44:02.578Z,67.53
2023-02-07T23:46:33.012Z,69.70
2023-02-07T23:49:01.484Z,63.60
2023-02-07T23:51:30.008Z,70.00
2023-02-07T23:53:59.520Z,62.30
2023-02-07T23:56:27.691Z,64.47
2023-02-07T23:58:55.834Z,60.80
